sensor_id;sensor_type;location;lat;lon;timestamp;P1;durP1;ratioP1;P2;durP2;ratioP2
20695;SDS011;10507;52.754;13.040;2023-10-08T00:01:25;4.80;;;1.40;;
20695;SDS011;10507;52.754;13.040;2023-10-08T00:03:53;4.50;;;1.55;;
20695;SDS011;10507;52.754;13.040;2023-10-08T00:06:25;6.68;;;1.60;;
20695;SDS011;10507;52.754;13.040;2023-10-08T00:08:56;4.78;;;1.30;;
20695;SDS011;10507;52.754;13.040;2023-10-08T00:11:26;7.97;;;2.10;;
20695;SDS011;10507;52.754;13.040;2023-10-08T00:13:56;6.63;;;1.88;;
20695;SDS011;10507;52.754;13.040;2023-10-08T00:16:25;8.50;;;1.83;;
20695;SDS011;10507;52.754;13.040;2023-10-08T00:18:55;7.05;;;1.80;;
20695;SDS011;10507;52.754;13.040;2023-10-08T00:21:26;6.97;;;2.17;;
20695;SDS011;10507;52.754;13.040;2023-10-08T00:23:56;6.50;;;1.95;;
20695;SDS011;10507;52.754;13.040;2023-10-08T00:26:26;9.38;;;2.13;;
20695;SDS011;10507;52.754;13.040;2023-10-08T00:28:57;6.05;;;1.77;;
20695;SDS011;10507;52.754;13.040;2023-10-08T00:31:27;8.82;;;2.15;;
20695;SDS011;10507;52.754;13.040;2023-10-08T00:33:58;9.93;;;2.22;;
20695;SDS011;10507;52.754;13.040;2023-10-08T00:36:26;6.90;;;2.20;;
20695;SDS011;10507;52.754;13.040;2023-10-08T00:38:54;12.90;;;2.30;;
20695;SDS011;10507;52.754;13.040;2023-10-08T00:41:26;8.50;;;3.25;;
20695;SDS011;10507;52.754;13.040;2023-10-08T00:43:57;7.40;;;2.30;;
20695;SDS011;10507;52.754;13.040;2023-10-08T00:46:27;6.95;;;2.42;;
20695;SDS011;10507;52.754;13.040;2023-10-08T00:48:59;6.03;;;2.35;;
20695;SDS011;10507;52.754;13.040;2023-10-08T00:51:46;9.70;;;2.30;;
20695;SDS011;10507;52.754;13.040;2023-10-08T00:54:15;5.72;;;2.28;;
20695;SDS011;10507;52.754;13.040;2023-10-08T00:56:46;7.53;;;2.40;;
20695;SDS011;10507;52.754;13.040;2023-10-08T00:59:23;5.72;;;2.13;;
20695;SDS011;10507;52.754;13.040;2023-10-08T01:01:52;6.45;;;2.47;;
20695;SDS011;10507;52.754;13.040;2023-10-08T01:04:25;9.27;;;2.58;;
20695;SDS011;10507;52.754;13.040;2023-10-08T01:06:55;7.72;;;3.03;;
20695;SDS011;10507;52.754;13.040;2023-10-08T01:09:30;7.30;;;2.88;;
20695;SDS011;10507;52.754;13.040;2023-10-08T01:12:08;8.10;;;3.03;;
20695;SDS011;10507;52.754;13.040;2023-10-08T01:14:42;6.25;;;2.45;;
20695;SDS011;10507;52.754;13.040;2023-10-08T01:17:12;8.43;;;3.03;;
20695;SDS011;10507;52.754;13.040;2023-10-08T01:19:45;9.95;;;3.03;;
20695;SDS011;10507;52.754;13.040;2023-10-08T01:22:18;12.63;;;2.88;;
20695;SDS011;10507;52.754;13.040;2023-10-08T01:24:48;6.18;;;2.95;;
20695;SDS011;10507;52.754;13.040;2023-10-08T01:27:17;5.38;;;2.85;;
20695;SDS011;10507;52.754;13.040;2023-10-08T01:29:48;10.60;;;3.50;;
20695;SDS011;10507;52.754;13.040;2023-10-08T01:32:18;9.00;;;2.90;;
20695;SDS011;10507;52.754;13.040;2023-10-08T01:34:48;9.98;;;3.25;;
20695;SDS011;10507;52.754;13.040;2023-10-08T01:37:16;9.63;;;3.70;;
20695;SDS011;10507;52.754;13.040;2023-10-08T01:39:48;9.45;;;3.33;;
20695;SDS011;10507;52.754;13.040;2023-10-08T01:42:16;13.23;;;3.10;;
20695;SDS011;10507;52.754;13.040;2023-10-08T01:44:45;7.78;;;3.05;;
20695;SDS011;10507;52.754;13.040;2023-10-08T01:47:15;6.88;;;2.90;;
20695;SDS011;10507;52.754;13.040;2023-10-08T01:49:43;10.75;;;3.30;;
20695;SDS011;10507;52.754;13.040;2023-10-08T01:52:13;7.60;;;2.90;;
20695;SDS011;10507;52.754;13.040;2023-10-08T01:54:48;10.27;;;3.33;;
20695;SDS011;10507;52.754;13.040;2023-10-08T01:57:20;7.20;;;3.08;;
20695;SDS011;10507;52.754;13.040;2023-10-08T01:59:47;9.52;;;2.92;;
20695;SDS011;10507;52.754;13.040;2023-10-08T02:02:16;10.07;;;3.33;;
20695;SDS011;10507;52.754;13.040;2023-10-08T02:04:44;7.22;;;3.25;;
20695;SDS011;10507;52.754;13.040;2023-10-08T02:07:12;9.02;;;3.38;;
20695;SDS011;10507;52.754;13.040;2023-10-08T02:09:42;10.40;;;2.65;;
20695;SDS011;10507;52.754;13.040;2023-10-08T02:12:12;10.75;;;2.83;;
20695;SDS011;10507;52.754;13.040;2023-10-08T02:14:41;8.50;;;3.13;;
20695;SDS011;10507;52.754;13.040;2023-10-08T02:17:10;14.77;;;3.60;;
20695;SDS011;10507;52.754;13.040;2023-10-08T02:19:39;8.40;;;3.47;;
20695;SDS011;10507;52.754;13.040;2023-10-08T02:22:07;6.97;;;2.83;;
20695;SDS011;10507;52.754;13.040;2023-10-08T02:24:36;7.97;;;2.58;;
20695;SDS011;10507;52.754;13.040;2023-10-08T02:27:04;11.23;;;3.03;;
20695;SDS011;10507;52.754;13.040;2023-10-08T02:29:35;7.00;;;2.80;;
20695;SDS011;10507;52.754;13.040;2023-10-08T02:32:03;8.23;;;2.90;;
20695;SDS011;10507;52.754;13.040;2023-10-08T02:34:34;12.40;;;2.92;;
20695;SDS011;10507;52.754;13.040;2023-10-08T02:37:02;10.85;;;3.28;;
20695;SDS011;10507;52.754;13.040;2023-10-08T02:39:31;11.68;;;2.85;;
20695;SDS011;10507;52.754;13.040;2023-10-08T02:41:59;20.20;;;3.28;;
20695;SDS011;10507;52.754;13.040;2023-10-08T02:44:27;7.72;;;2.45;;
20695;SDS011;10507;52.754;13.040;2023-10-08T02:46:56;14.55;;;3.28;;
20695;SDS011;10507;52.754;13.040;2023-10-08T02:49:24;6.80;;;2.72;;
20695;SDS011;10507;52.754;13.040;2023-10-08T02:51:56;11.52;;;2.90;;
20695;SDS011;10507;52.754;13.040;2023-10-08T02:54:24;9.68;;;2.55;;
20695;SDS011;10507;52.754;13.040;2023-10-08T02:56:58;9.00;;;2.60;;
20695;SDS011;10507;52.754;13.040;2023-10-08T02:59:30;11.90;;;3.22;;
20695;SDS011;10507;52.754;13.040;2023-10-08T03:02:07;7.55;;;2.92;;
20695;SDS011;10507;52.754;13.040;2023-10-08T03:04:42;9.50;;;3.33;;
20695;SDS011;10507;52.754;13.040;2023-10-08T03:07:12;10.30;;;2.90;;
20695;SDS011;10507;52.754;13.040;2023-10-08T03:09:48;7.20;;;2.63;;
20695;SDS011;10507;52.754;13.040;2023-10-08T03:12:17;9.38;;;3.30;;
20695;SDS011;10507;52.754;13.040;2023-10-08T03:14:45;13.57;;;3.90;;
20695;SDS011;10507;52.754;13.040;2023-10-08T03:17:29;9.32;;;2.85;;
20695;SDS011;10507;52.754;13.040;2023-10-08T03:19:57;6.18;;;3.40;;
20695;SDS011;10507;52.754;13.040;2023-10-08T03:22:45;11.63;;;3.88;;
20695;SDS011;10507;52.754;13.040;2023-10-08T03:25:13;8.80;;;3.50;;
20695;SDS011;10507;52.754;13.040;2023-10-08T03:27:44;9.88;;;2.85;;
20695;SDS011;10507;52.754;13.040;2023-10-08T03:30:12;15.50;;;3.65;;
20695;SDS011;10507;52.754;13.040;2023-10-08T03:32:43;11.95;;;3.47;;
20695;SDS011;10507;52.754;13.040;2023-10-08T03:35:12;10.73;;;3.10;;
20695;SDS011;10507;52.754;13.040;2023-10-08T03:37:40;12.52;;;3.58;;
20695;SDS011;10507;52.754;13.040;2023-10-08T03:40:12;11.43;;;3.47;;
20695;SDS011;10507;52.754;13.040;2023-10-08T03:43:08;11.35;;;4.40;;
20695;SDS011;10507;52.754;13.040;2023-10-08T03:45:45;10.63;;;3.72;;
20695;SDS011;10507;52.754;13.040;2023-10-08T03:48:21;15.00;;;4.40;;
20695;SDS011;10507;52.754;13.040;2023-10-08T03:50:49;10.70;;;3.35;;
20695;SDS011;10507;52.754;13.040;2023-10-08T03:53:23;11.63;;;4.38;;
20695;SDS011;10507;52.754;13.040;2023-10-08T03:55:51;10.27;;;3.45;;
20695;SDS011;10507;52.754;13.040;2023-10-08T03:58:21;11.07;;;3.45;;
20695;SDS011;10507;52.754;13.040;2023-10-08T04:00:57;8.70;;;3.80;;
20695;SDS011;10507;52.754;13.040;2023-10-08T04:03:36;9.18;;;3.90;;
20695;SDS011;10507;52.754;13.040;2023-10-08T04:06:26;9.65;;;3.83;;
20695;SDS011;10507;52.754;13.040;2023-10-08T04:09:04;12.98;;;4.18;;
20695;SDS011;10507;52.754;13.040;2023-10-08T04:11:44;16.33;;;4.32;;
20695;SDS011;10507;52.754;13.040;2023-10-08T04:14:29;7.75;;;3.75;;
20695;SDS011;10507;52.754;13.040;2023-10-08T04:16:58;11.98;;;4.05;;
20695;SDS011;10507;52.754;13.040;2023-10-08T04:19:27;14.15;;;4.45;;
20695;SDS011;10507;52.754;13.040;2023-10-08T04:21:55;9.05;;;3.42;;
20695;SDS011;10507;52.754;13.040;2023-10-08T04:24:24;10.20;;;4.35;;
20695;SDS011;10507;52.754;13.040;2023-10-08T04:26:55;9.15;;;4.28;;
20695;SDS011;10507;52.754;13.040;2023-10-08T04:29:24;18.08;;;4.63;;
20695;SDS011;10507;52.754;13.040;2023-10-08T04:31:58;8.18;;;3.95;;
20695;SDS011;10507;52.754;13.040;2023-10-08T04:34:35;12.80;;;3.53;;
20695;SDS011;10507;52.754;13.040;2023-10-08T04:37:04;10.93;;;4.28;;
20695;SDS011;10507;52.754;13.040;2023-10-08T04:39:39;12.38;;;4.18;;
20695;SDS011;10507;52.754;13.040;2023-10-08T04:42:14;14.57;;;4.30;;
20695;SDS011;10507;52.754;13.040;2023-10-08T04:44:52;12.70;;;4.80;;
20695;SDS011;10507;52.754;13.040;2023-10-08T04:47:21;12.02;;;3.58;;
20695;SDS011;10507;52.754;13.040;2023-10-08T04:50:00;11.85;;;3.78;;
20695;SDS011;10507;52.754;13.040;2023-10-08T04:52:31;9.65;;;4.35;;
20695;SDS011;10507;52.754;13.040;2023-10-08T04:55:01;9.93;;;3.78;;
20695;SDS011;10507;52.754;13.040;2023-10-08T04:57:39;12.57;;;4.30;;
20695;SDS011;10507;52.754;13.040;2023-10-08T05:00:09;10.27;;;3.67;;
20695;SDS011;10507;52.754;13.040;2023-10-08T05:02:41;10.02;;;4.00;;
20695;SDS011;10507;52.754;13.040;2023-10-08T05:05:18;9.23;;;3.90;;
20695;SDS011;10507;52.754;13.040;2023-10-08T05:07:49;9.25;;;3.45;;
20695;SDS011;10507;52.754;13.040;2023-10-08T05:10:44;8.13;;;3.85;;
20695;SDS011;10507;52.754;13.040;2023-10-08T05:13:28;15.85;;;3.95;;
20695;SDS011;10507;52.754;13.040;2023-10-08T05:16:11;7.72;;;4.65;;
20695;SDS011;10507;52.754;13.040;2023-10-08T05:18:56;15.50;;;4.47;;
20695;SDS011;10507;52.754;13.040;2023-10-08T05:22:05;11.15;;;3.85;;
20695;SDS011;10507;52.754;13.040;2023-10-08T05:24:56;11.05;;;4.63;;
20695;SDS011;10507;52.754;13.040;2023-10-08T05:27:34;7.82;;;3.50;;
20695;SDS011;10507;52.754;13.040;2023-10-08T05:30:24;18.65;;;5.38;;
20695;SDS011;10507;52.754;13.040;2023-10-08T05:32:55;11.30;;;4.22;;
20695;SDS011;10507;52.754;13.040;2023-10-08T05:35:51;7.90;;;4.05;;
20695;SDS011;10507;52.754;13.040;2023-10-08T05:38:30;8.75;;;3.38;;
20695;SDS011;10507;52.754;13.040;2023-10-08T05:41:26;12.68;;;3.85;;
20695;SDS011;10507;52.754;13.040;2023-10-08T05:44:05;6.13;;;3.05;;
20695;SDS011;10507;52.754;13.040;2023-10-08T05:46:51;7.38;;;2.95;;
20695;SDS011;10507;52.754;13.040;2023-10-08T05:49:33;17.50;;;3.72;;
20695;SDS011;10507;52.754;13.040;2023-10-08T05:52:21;14.93;;;4.23;;
20695;SDS011;10507;52.754;13.040;2023-10-08T05:55:09;6.53;;;3.22;;
20695;SDS011;10507;52.754;13.040;2023-10-08T05:57:52;7.03;;;3.47;;
20695;SDS011;10507;52.754;13.040;2023-10-08T06:00:29;17.85;;;5.05;;
20695;SDS011;10507;52.754;13.040;2023-10-08T06:03:13;7.22;;;2.80;;
20695;SDS011;10507;52.754;13.040;2023-10-08T06:05:59;7.47;;;3.30;;
20695;SDS011;10507;52.754;13.040;2023-10-08T06:08:45;13.23;;;4.15;;
20695;SDS011;10507;52.754;13.040;2023-10-08T06:11:20;7.80;;;3.13;;
20695;SDS011;10507;52.754;13.040;2023-10-08T06:14:08;6.00;;;3.28;;
20695;SDS011;10507;52.754;13.040;2023-10-08T06:16:43;5.82;;;2.28;;
20695;SDS011;10507;52.754;13.040;2023-10-08T06:19:11;5.57;;;2.17;;
20695;SDS011;10507;52.754;13.040;2023-10-08T06:21:40;4.90;;;2.00;;
20695;SDS011;10507;52.754;13.040;2023-10-08T06:24:08;4.35;;;1.73;;
20695;SDS011;10507;52.754;13.040;2023-10-08T06:26:39;3.03;;;2.00;;
20695;SDS011;10507;52.754;13.040;2023-10-08T06:29:11;4.88;;;1.80;;
20695;SDS011;10507;52.754;13.040;2023-10-08T06:31:53;3.70;;;1.70;;
20695;SDS011;10507;52.754;13.040;2023-10-08T06:34:23;3.60;;;1.45;;
20695;SDS011;10507;52.754;13.040;2023-10-08T06:36:55;4.55;;;2.17;;
20695;SDS011;10507;52.754;13.040;2023-10-08T06:39:25;4.47;;;1.63;;
20695;SDS011;10507;52.754;13.040;2023-10-08T06:42:01;5.05;;;1.80;;
20695;SDS011;10507;52.754;13.040;2023-10-08T06:44:29;5.28;;;1.83;;
20695;SDS011;10507;52.754;13.040;2023-10-08T06:46:57;7.75;;;2.38;;
20695;SDS011;10507;52.754;13.040;2023-10-08T06:49:25;4.38;;;1.70;;
20695;SDS011;10507;52.754;13.040;2023-10-08T06:51:53;5.53;;;1.80;;
20695;SDS011;10507;52.754;13.040;2023-10-08T06:54:21;3.83;;;1.38;;
20695;SDS011;10507;52.754;13.040;2023-10-08T06:56:49;5.32;;;1.50;;
20695;SDS011;10507;52.754;13.040;2023-10-08T06:59:21;3.50;;;1.70;;
20695;SDS011;10507;52.754;13.040;2023-10-08T07:01:50;5.50;;;1.75;;
20695;SDS011;10507;52.754;13.040;2023-10-08T07:04:18;6.00;;;1.83;;
20695;SDS011;10507;52.754;13.040;2023-10-08T07:06:49;5.20;;;1.40;;
20695;SDS011;10507;52.754;13.040;2023-10-08T07:09:18;4.25;;;1.83;;
20695;SDS011;10507;52.754;13.040;2023-10-08T07:11:56;6.15;;;1.95;;
20695;SDS011;10507;52.754;13.040;2023-10-08T07:14:34;6.60;;;1.77;;
20695;SDS011;10507;52.754;13.040;2023-10-08T07:17:02;6.65;;;1.92;;
20695;SDS011;10507;52.754;13.040;2023-10-08T07:19:34;4.57;;;1.58;;
20695;SDS011;10507;52.754;13.040;2023-10-08T07:22:05;4.40;;;1.60;;
20695;SDS011;10507;52.754;13.040;2023-10-08T07:24:45;4.78;;;1.95;;
20695;SDS011;10507;52.754;13.040;2023-10-08T07:27:17;6.00;;;1.60;;
20695;SDS011;10507;52.754;13.040;2023-10-08T07:29:49;4.43;;;1.58;;
20695;SDS011;10507;52.754;13.040;2023-10-08T07:32:22;5.75;;;1.40;;
20695;SDS011;10507;52.754;13.040;2023-10-08T07:34:52;4.57;;;1.10;;
20695;SDS011;10507;52.754;13.040;2023-10-08T07:37:24;4.88;;;1.45;;
20695;SDS011;10507;52.754;13.040;2023-10-08T07:39:52;3.45;;;1.63;;
20695;SDS011;10507;52.754;13.040;2023-10-08T07:42:21;5.68;;;1.58;;
20695;SDS011;10507;52.754;13.040;2023-10-08T07:44:51;3.60;;;1.42;;
20695;SDS011;10507;52.754;13.040;2023-10-08T07:47:21;11.98;;;1.60;;
20695;SDS011;10507;52.754;13.040;2023-10-08T07:49:49;5.43;;;1.20;;
20695;SDS011;10507;52.754;13.040;2023-10-08T07:52:18;3.38;;;1.33;;
20695;SDS011;10507;52.754;13.040;2023-10-08T07:54:47;1.75;;;1.00;;
20695;SDS011;10507;52.754;13.040;2023-10-08T07:57:15;3.70;;;0.85;;
20695;SDS011;10507;52.754;13.040;2023-10-08T07:59:53;2.05;;;0.88;;
20695;SDS011;10507;52.754;13.040;2023-10-08T08:02:28;1.90;;;0.80;;
20695;SDS011;10507;52.754;13.040;2023-10-08T08:04:57;2.45;;;1.08;;
20695;SDS011;10507;52.754;13.040;2023-10-08T08:07:25;2.65;;;0.93;;
20695;SDS011;10507;52.754;13.040;2023-10-08T08:09:53;2.63;;;0.90;;
20695;SDS011;10507;52.754;13.040;2023-10-08T08:12:26;2.42;;;0.77;;
20695;SDS011;10507;52.754;13.040;2023-10-08T08:15:02;2.50;;;0.95;;
20695;SDS011;10507;52.754;13.040;2023-10-08T08:17:41;3.53;;;0.90;;
20695;SDS011;10507;52.754;13.040;2023-10-08T08:20:09;4.53;;;0.90;;
20695;SDS011;10507;52.754;13.040;2023-10-08T08:22:45;3.47;;;0.88;;
20695;SDS011;10507;52.754;13.040;2023-10-08T08:25:16;1.40;;;0.70;;
20695;SDS011;10507;52.754;13.040;2023-10-08T08:27:53;1.95;;;0.90;;
20695;SDS011;10507;52.754;13.040;2023-10-08T08:30:23;2.80;;;1.00;;
20695;SDS011;10507;52.754;13.040;2023-10-08T08:32:53;2.67;;;1.23;;
20695;SDS011;10507;52.754;13.040;2023-10-08T08:35:22;3.15;;;0.90;;
20695;SDS011;10507;52.754;13.040;2023-10-08T08:37:51;1.92;;;0.90;;
20695;SDS011;10507;52.754;13.040;2023-10-08T08:40:19;1.75;;;0.70;;
20695;SDS011;10507;52.754;13.040;2023-10-08T08:42:50;4.72;;;1.25;;
20695;SDS011;10507;52.754;13.040;2023-10-08T08:45:19;2.80;;;1.15;;
20695;SDS011;10507;52.754;13.040;2023-10-08T08:47:52;0.50;;;0.50;;
20695;SDS011;10507;52.754;13.040;2023-10-08T08:50:23;1.42;;;0.82;;
20695;SDS011;10507;52.754;13.040;2023-10-08T08:52:53;0.95;;;0.70;;
20695;SDS011;10507;52.754;13.040;2023-10-08T08:55:21;1.42;;;0.60;;
20695;SDS011;10507;52.754;13.040;2023-10-08T08:57:51;4.00;;;0.60;;
20695;SDS011;10507;52.754;13.040;2023-10-08T09:00:22;3.13;;;0.60;;
20695;SDS011;10507;52.754;13.040;2023-10-08T09:02:56;1.30;;;0.52;;
20695;SDS011;10507;52.754;13.040;2023-10-08T09:05:31;3.13;;;0.75;;
20695;SDS011;10507;52.754;13.040;2023-10-08T09:08:02;1.35;;;0.65;;
20695;SDS011;10507;52.754;13.040;2023-10-08T09:10:31;2.05;;;0.63;;
20695;SDS011;10507;52.754;13.040;2023-10-08T09:13:04;1.10;;;0.60;;
20695;SDS011;10507;52.754;13.040;2023-10-08T09:15:34;2.50;;;0.63;;
20695;SDS011;10507;52.754;13.040;2023-10-08T09:18:04;1.50;;;0.57;;
20695;SDS011;10507;52.754;13.040;2023-10-08T09:20:34;2.92;;;0.75;;
20695;SDS011;10507;52.754;13.040;2023-10-08T09:23:10;4.65;;;1.10;;
20695;SDS011;10507;52.754;13.040;2023-10-08T09:25:40;2.15;;;0.85;;
20695;SDS011;10507;52.754;13.040;2023-10-08T09:28:08;1.55;;;0.70;;
20695;SDS011;10507;52.754;13.040;2023-10-08T09:30:40;2.05;;;0.68;;
20695;SDS011;10507;52.754;13.040;2023-10-08T09:33:10;1.02;;;0.55;;
20695;SDS011;10507;52.754;13.040;2023-10-08T09:35:40;1.65;;;0.77;;
20695;SDS011;10507;52.754;13.040;2023-10-08T09:38:10;3.40;;;0.60;;
20695;SDS011;10507;52.754;13.040;2023-10-08T09:40:39;2.90;;;0.50;;
20695;SDS011;10507;52.754;13.040;2023-10-08T09:43:11;2.03;;;0.80;;
20695;SDS011;10507;52.754;13.040;2023-10-08T09:45:40;1.17;;;0.52;;
20695;SDS011;10507;52.754;13.040;2023-10-08T09:48:12;1.95;;;0.85;;
20695;SDS011;10507;52.754;13.040;2023-10-08T09:50:45;1.42;;;0.55;;
20695;SDS011;10507;52.754;13.040;2023-10-08T09:53:14;1.75;;;0.50;;
20695;SDS011;10507;52.754;13.040;2023-10-08T09:55:44;0.90;;;0.63;;
20695;SDS011;10507;52.754;13.040;2023-10-08T09:58:16;1.60;;;0.40;;
20695;SDS011;10507;52.754;13.040;2023-10-08T10:00:44;1.00;;;0.45;;
20695;SDS011;10507;52.754;13.040;2023-10-08T10:03:18;0.93;;;0.57;;
20695;SDS011;10507;52.754;13.040;2023-10-08T10:05:48;1.65;;;0.45;;
20695;SDS011;10507;52.754;13.040;2023-10-08T10:08:16;1.23;;;0.52;;
20695;SDS011;10507;52.754;13.040;2023-10-08T10:10:46;0.95;;;0.40;;
20695;SDS011;10507;52.754;13.040;2023-10-08T10:13:16;2.00;;;0.68;;
20695;SDS011;10507;52.754;13.040;2023-10-08T10:15:44;1.35;;;0.57;;
20695;SDS011;10507;52.754;13.040;2023-10-08T10:18:15;1.77;;;0.73;;
20695;SDS011;10507;52.754;13.040;2023-10-08T10:20:58;0.90;;;0.40;;
20695;SDS011;10507;52.754;13.040;2023-10-08T10:23:35;0.82;;;0.43;;
20695;SDS011;10507;52.754;13.040;2023-10-08T10:26:21;0.60;;;0.40;;
20695;SDS011;10507;52.754;13.040;2023-10-08T10:31:53;1.33;;;0.40;;
20695;SDS011;10507;52.754;13.040;2023-10-08T10:34:24;1.77;;;0.63;;
20695;SDS011;10507;52.754;13.040;2023-10-08T10:36:56;1.00;;;0.57;;
20695;SDS011;10507;52.754;13.040;2023-10-08T10:39:29;0.50;;;0.40;;
20695;SDS011;10507;52.754;13.040;2023-10-08T10:42:01;0.50;;;0.50;;
20695;SDS011;10507;52.754;13.040;2023-10-08T10:44:32;2.17;;;0.50;;
20695;SDS011;10507;52.754;13.040;2023-10-08T10:47:03;2.13;;;0.60;;
20695;SDS011;10507;52.754;13.040;2023-10-08T10:49:49;0.70;;;0.38;;
20695;SDS011;10507;52.754;13.040;2023-10-08T10:52:22;1.90;;;0.70;;
20695;SDS011;10507;52.754;13.040;2023-10-08T10:54:59;2.92;;;1.67;;
20695;SDS011;10507;52.754;13.040;2023-10-08T10:57:47;0.70;;;0.50;;
20695;SDS011;10507;52.754;13.040;2023-10-08T11:00:23;1.33;;;0.65;;
20695;SDS011;10507;52.754;13.040;2023-10-08T11:03:10;1.23;;;0.50;;
20695;SDS011;10507;52.754;13.040;2023-10-08T11:05:45;2.17;;;0.40;;
20695;SDS011;10507;52.754;13.040;2023-10-08T11:08:19;0.60;;;0.50;;
20695;SDS011;10507;52.754;13.040;2023-10-08T11:10:49;1.55;;;0.50;;
20695;SDS011;10507;52.754;13.040;2023-10-08T11:13:20;1.02;;;0.50;;
20695;SDS011;10507;52.754;13.040;2023-10-08T11:15:50;0.90;;;0.43;;
20695;SDS011;10507;52.754;13.040;2023-10-08T11:18:19;0.65;;;0.40;;
20695;SDS011;10507;52.754;13.040;2023-10-08T11:20:49;1.90;;;0.70;;
20695;SDS011;10507;52.754;13.040;2023-10-08T11:23:32;0.80;;;0.60;;
20695;SDS011;10507;52.754;13.040;2023-10-08T11:26:02;2.03;;;0.50;;
20695;SDS011;10507;52.754;13.040;2023-10-08T11:28:32;0.82;;;0.47;;
20695;SDS011;10507;52.754;13.040;2023-10-08T11:31:01;2.30;;;0.80;;
20695;SDS011;10507;52.754;13.040;2023-10-08T11:33:35;2.63;;;0.82;;
20695;SDS011;10507;52.754;13.040;2023-10-08T11:36:05;3.13;;;0.50;;
20695;SDS011;10507;52.754;13.040;2023-10-08T11:38:46;1.30;;;0.40;;
20695;SDS011;10507;52.754;13.040;2023-10-08T11:41:17;1.85;;;0.40;;
20695;SDS011;10507;52.754;13.040;2023-10-08T11:43:48;1.60;;;0.70;;
20695;SDS011;10507;52.754;13.040;2023-10-08T11:46:21;1.98;;;0.63;;
20695;SDS011;10507;52.754;13.040;2023-10-08T11:48:52;0.90;;;0.50;;
20695;SDS011;10507;52.754;13.040;2023-10-08T11:51:24;5.07;;;0.93;;
20695;SDS011;10507;52.754;13.040;2023-10-08T11:53:56;0.93;;;0.40;;
20695;SDS011;10507;52.754;13.040;2023-10-08T11:56:26;1.05;;;0.50;;
20695;SDS011;10507;52.754;13.040;2023-10-08T11:58:54;1.33;;;0.60;;
20695;SDS011;10507;52.754;13.040;2023-10-08T12:01:23;2.03;;;0.57;;
20695;SDS011;10507;52.754;13.040;2023-10-08T12:03:53;0.93;;;0.40;;
20695;SDS011;10507;52.754;13.040;2023-10-08T12:06:26;1.08;;;0.50;;
20695;SDS011;10507;52.754;13.040;2023-10-08T12:08:57;2.38;;;0.50;;
20695;SDS011;10507;52.754;13.040;2023-10-08T12:11:38;2.38;;;1.25;;
20695;SDS011;10507;52.754;13.040;2023-10-08T12:14:06;0.75;;;0.55;;
20695;SDS011;10507;52.754;13.040;2023-10-08T12:16:36;0.63;;;0.50;;
20695;SDS011;10507;52.754;13.040;2023-10-08T12:19:06;3.58;;;0.63;;
20695;SDS011;10507;52.754;13.040;2023-10-08T12:21:42;2.63;;;0.57;;
20695;SDS011;10507;52.754;13.040;2023-10-08T12:24:14;1.13;;;0.40;;
20695;SDS011;10507;52.754;13.040;2023-10-08T12:26:43;1.13;;;0.55;;
20695;SDS011;10507;52.754;13.040;2023-10-08T12:29:13;2.00;;;0.50;;
20695;SDS011;10507;52.754;13.040;2023-10-08T12:31:43;1.23;;;0.60;;
20695;SDS011;10507;52.754;13.040;2023-10-08T12:34:14;1.17;;;0.70;;
20695;SDS011;10507;52.754;13.040;2023-10-08T12:36:43;2.05;;;0.40;;
20695;SDS011;10507;52.754;13.040;2023-10-08T12:39:14;1.30;;;0.63;;
20695;SDS011;10507;52.754;13.040;2023-10-08T12:41:44;1.63;;;0.80;;
20695;SDS011;10507;52.754;13.040;2023-10-08T12:44:12;2.97;;;1.20;;
20695;SDS011;10507;52.754;13.040;2023-10-08T12:46:42;1.30;;;0.70;;
20695;SDS011;10507;52.754;13.040;2023-10-08T12:49:11;1.50;;;0.40;;
20695;SDS011;10507;52.754;13.040;2023-10-08T12:51:39;1.55;;;0.52;;
20695;SDS011;10507;52.754;13.040;2023-10-08T12:54:08;1.40;;;0.65;;
20695;SDS011;10507;52.754;13.040;2023-10-08T12:56:40;0.90;;;0.40;;
20695;SDS011;10507;52.754;13.040;2023-10-08T12:59:12;1.10;;;0.55;;
20695;SDS011;10507;52.754;13.040;2023-10-08T13:01:47;1.85;;;0.73;;
20695;SDS011;10507;52.754;13.040;2023-10-08T13:04:18;1.88;;;0.95;;
20695;SDS011;10507;52.754;13.040;2023-10-08T13:06:52;2.78;;;0.60;;
20695;SDS011;10507;52.754;13.040;2023-10-08T13:09:23;0.70;;;0.50;;
20695;SDS011;10507;52.754;13.040;2023-10-08T13:11:53;1.88;;;0.60;;
20695;SDS011;10507;52.754;13.040;2023-10-08T13:14:21;1.58;;;0.70;;
20695;SDS011;10507;52.754;13.040;2023-10-08T13:16:50;1.08;;;0.60;;
20695;SDS011;10507;52.754;13.040;2023-10-08T13:19:20;1.52;;;0.60;;
20695;SDS011;10507;52.754;13.040;2023-10-08T13:21:50;1.58;;;0.50;;
20695;SDS011;10507;52.754;13.040;2023-10-08T13:24:19;1.20;;;0.60;;
20695;SDS011;10507;52.754;13.040;2023-10-08T13:26:50;1.45;;;0.63;;
20695;SDS011;10507;52.754;13.040;2023-10-08T13:29:20;2.28;;;0.60;;
20695;SDS011;10507;52.754;13.040;2023-10-08T13:31:48;1.35;;;0.50;;
20695;SDS011;10507;52.754;13.040;2023-10-08T13:34:16;1.77;;;0.70;;
20695;SDS011;10507;52.754;13.040;2023-10-08T13:36:44;3.30;;;0.55;;
20695;SDS011;10507;52.754;13.040;2023-10-08T13:39:14;1.00;;;0.60;;
20695;SDS011;10507;52.754;13.040;2023-10-08T13:41:45;1.20;;;0.70;;
20695;SDS011;10507;52.754;13.040;2023-10-08T13:44:15;1.50;;;0.70;;
20695;SDS011;10507;52.754;13.040;2023-10-08T13:46:46;0.88;;;0.50;;
20695;SDS011;10507;52.754;13.040;2023-10-08T13:49:16;1.15;;;0.60;;
20695;SDS011;10507;52.754;13.040;2023-10-08T13:51:45;2.05;;;0.60;;
20695;SDS011;10507;52.754;13.040;2023-10-08T13:54:22;4.00;;;1.00;;
20695;SDS011;10507;52.754;13.040;2023-10-08T13:56:52;1.85;;;0.60;;
20695;SDS011;10507;52.754;13.040;2023-10-08T13:59:20;2.00;;;0.70;;
20695;SDS011;10507;52.754;13.040;2023-10-08T14:01:52;1.40;;;0.88;;
20695;SDS011;10507;52.754;13.040;2023-10-08T14:04:21;1.40;;;0.55;;
20695;SDS011;10507;52.754;13.040;2023-10-08T14:06:57;0.90;;;0.60;;
20695;SDS011;10507;52.754;13.040;2023-10-08T14:09:25;1.80;;;0.63;;
20695;SDS011;10507;52.754;13.040;2023-10-08T14:12:03;2.08;;;0.70;;
20695;SDS011;10507;52.754;13.040;2023-10-08T14:14:33;1.02;;;0.60;;
20695;SDS011;10507;52.754;13.040;2023-10-08T14:17:04;2.58;;;1.17;;
20695;SDS011;10507;52.754;13.040;2023-10-08T14:19:35;1.42;;;0.60;;
20695;SDS011;10507;52.754;13.040;2023-10-08T14:22:06;2.78;;;0.57;;
20695;SDS011;10507;52.754;13.040;2023-10-08T14:24:41;2.15;;;0.88;;
20695;SDS011;10507;52.754;13.040;2023-10-08T14:27:12;3.55;;;0.95;;
20695;SDS011;10507;52.754;13.040;2023-10-08T14:29:42;3.90;;;1.13;;
20695;SDS011;10507;52.754;13.040;2023-10-08T14:32:14;3.88;;;1.00;;
20695;SDS011;10507;52.754;13.040;2023-10-08T14:34:42;2.20;;;0.70;;
20695;SDS011;10507;52.754;13.040;2023-10-08T14:37:28;2.50;;;1.08;;
20695;SDS011;10507;52.754;13.040;2023-10-08T14:40:14;0.82;;;0.50;;
20695;SDS011;10507;52.754;13.040;2023-10-08T14:43:00;1.88;;;0.70;;
20695;SDS011;10507;52.754;13.040;2023-10-08T14:45:30;1.58;;;0.60;;
20695;SDS011;10507;52.754;13.040;2023-10-08T14:48:06;1.67;;;0.70;;
20695;SDS011;10507;52.754;13.040;2023-10-08T14:50:38;0.95;;;0.70;;
20695;SDS011;10507;52.754;13.040;2023-10-08T14:53:09;2.75;;;0.80;;
20695;SDS011;10507;52.754;13.040;2023-10-08T14:55:37;1.58;;;0.88;;
20695;SDS011;10507;52.754;13.040;2023-10-08T14:58:05;2.33;;;0.70;;
20695;SDS011;10507;52.754;13.040;2023-10-08T15:00:36;2.10;;;0.90;;
20695;SDS011;10507;52.754;13.040;2023-10-08T15:03:07;1.10;;;0.60;;
20695;SDS011;10507;52.754;13.040;2023-10-08T15:05:38;1.33;;;0.80;;
20695;SDS011;10507;52.754;13.040;2023-10-08T15:08:07;4.00;;;0.98;;